createdAt,value
2018-09-10T00:00:52.424Z,18.50
2018-09-10T00:03:20.433Z,18.40
2018-09-10T00:05:47.939Z,18.40
2018-09-10T00:08:15.361Z,18.40
2018-09-10T00:10:42.876Z,18.40
2018-09-10T00:13:10.994Z,18.40
2018-09-10T00:15:38.546Z,18.20
2018-09-10T00:18:06.148Z,18.10
2018-09-10T00:20:33.579Z,18.10
2018-09-10T00:23:02.345Z,18.10
2018-09-10T00:25:30.890Z,17.90
2018-09-10T00:27:58.976Z,17.50
2018-09-10T00:30:26.556Z,17.60
2018-09-10T00:32:54.082Z,17.40
2018-09-10T00:35:36.288Z,17.70
2018-09-10T00:38:03.884Z,17.80
2018-09-10T00:40:37.430Z,17.60
2018-09-10T00:45:52.717Z,17.60
2018-09-10T00:48:20.131Z,17.60
2018-09-10T00:50:49.143Z,17.60
2018-09-10T00:53:16.818Z,17.50
2018-09-10T00:55:44.286Z,17.60
2018-09-10T00:58:11.915Z,17.70
2018-09-10T01:00:39.590Z,17.60
2018-09-10T01:08:18.325Z,17.70
2018-09-10T01:10:45.997Z,17.70
2018-09-10T01:16:06.309Z,17.40
2018-09-10T01:21:45.052Z,17.20
2018-09-10T01:24:12.858Z,17.20
2018-09-10T01:26:40.404Z,17.30
2018-09-10T01:29:29.588Z,17.20
2018-09-10T01:31:57.233Z,17.30
2018-09-10T01:40:27.369Z,17.50
2018-09-10T01:42:55.042Z,17.40
2018-09-10T01:45:22.574Z,17.40
2018-09-10T01:47:50.547Z,17.30
2018-09-10T01:50:18.380Z,17.40
2018-09-10T01:52:45.977Z,17.30
2018-09-10T01:55:13.578Z,17.30
2018-09-10T01:57:41.105Z,17.30
2018-09-10T02:00:08.679Z,17.20
2018-09-10T02:02:36.807Z,17.20
2018-09-10T02:05:05.573Z,17.00
2018-09-10T02:07:33.160Z,16.60
2018-09-10T02:10:00.634Z,16.40
2018-09-10T02:12:28.066Z,16.70
2018-09-10T02:15:02.375Z,16.90
2018-09-10T02:17:30.757Z,16.90
2018-09-10T02:19:58.271Z,17.00
2018-09-10T02:22:38.650Z,17.00
2018-09-10T02:33:56.036Z,17.10
2018-09-10T02:39:26.641Z,17.10
2018-09-10T02:41:54.242Z,16.70
2018-09-10T02:44:21.849Z,16.70
2018-09-10T02:46:49.421Z,16.70
2018-09-10T02:49:16.954Z,16.80
2018-09-10T02:52:13.252Z,16.60
2018-09-10T02:54:40.728Z,16.50
2018-09-10T02:57:08.518Z,16.50
2018-09-10T02:59:36.091Z,16.40
2018-09-10T03:02:03.558Z,16.40
2018-09-10T03:04:31.203Z,16.50
2018-09-10T03:06:59.058Z,16.60
2018-09-10T03:09:26.429Z,16.60
2018-09-10T03:12:16.686Z,16.60
2018-09-10T03:14:44.246Z,16.60
2018-09-10T03:17:11.832Z,16.70
2018-09-10T03:19:39.417Z,16.70
2018-09-10T03:22:18.653Z,16.70
2018-09-10T03:24:46.400Z,16.50
2018-09-10T03:27:13.979Z,16.40
2018-09-10T03:29:41.540Z,16.50
2018-09-10T03:32:09.039Z,16.40
2018-09-10T03:34:36.527Z,16.50
2018-09-10T03:37:06.604Z,16.50
2018-09-10T03:39:34.125Z,16.50
2018-09-10T03:42:02.102Z,16.40
2018-09-10T03:44:29.682Z,16.40
2018-09-10T03:46:57.227Z,16.40
2018-09-10T03:49:24.604Z,16.20
2018-09-10T03:51:52.340Z,16.30
2018-09-10T03:54:20.007Z,16.40
2018-09-10T03:56:47.632Z,16.40
2018-09-10T03:59:15.056Z,16.40
2018-09-10T04:01:42.548Z,16.40
2018-09-10T04:04:13.784Z,16.30
2018-09-10T04:06:41.287Z,16.30
2018-09-10T04:09:09.463Z,16.30
2018-09-10T04:11:37.029Z,16.30
2018-09-10T04:14:04.732Z,16.40
2018-09-10T04:16:32.568Z,16.40
2018-09-10T04:19:01.112Z,16.40
2018-09-10T04:21:29.862Z,16.00
2018-09-10T04:23:57.340Z,15.90
2018-09-10T04:26:26.984Z,15.90
2018-09-10T04:28:54.649Z,16.10
2018-09-10T04:31:22.212Z,16.00
2018-09-10T04:33:50.313Z,16.10
2018-09-10T04:36:18.096Z,16.10
2018-09-10T04:38:45.678Z,16.00
2018-09-10T04:41:14.101Z,15.90
2018-09-10T04:43:41.817Z,15.90
2018-09-10T04:46:09.347Z,15.80
2018-09-10T04:48:36.755Z,15.80
2018-09-10T04:51:04.117Z,15.70
2018-09-10T04:53:31.537Z,15.70
2018-09-10T04:55:58.957Z,15.80
2018-09-10T04:58:26.398Z,16.00
2018-09-10T05:00:53.904Z,16.10
2018-09-10T05:03:21.636Z,16.20
2018-09-10T05:05:49.479Z,16.30
2018-09-10T05:08:16.919Z,16.30
2018-09-10T05:10:44.449Z,16.20
2018-09-10T05:13:11.888Z,16.20
2018-09-10T05:15:39.445Z,16.10
2018-09-10T05:18:07.052Z,15.80
2018-09-10T05:20:34.533Z,15.60
2018-09-10T05:23:02.242Z,16.00
2018-09-10T05:25:30.277Z,16.10
2018-09-10T05:28:02.371Z,16.10
2018-09-10T05:30:30.185Z,15.90
2018-09-10T05:33:27.076Z,15.70
2018-09-10T05:39:26.887Z,15.80
2018-09-10T05:41:54.840Z,15.80
2018-09-10T05:55:14.462Z,16.10
2018-09-10T05:57:43.140Z,16.30
2018-09-10T06:03:51.218Z,16.60
2018-09-10T06:06:35.967Z,16.70
2018-09-10T06:09:11.724Z,16.80
2018-09-10T06:11:45.538Z,16.80
2018-09-10T06:14:13.798Z,16.80
2018-09-10T06:19:48.292Z,16.70
2018-09-10T06:22:16.047Z,16.60
2018-09-10T06:24:49.569Z,16.60
2018-09-10T06:39:30.655Z,16.80
2018-09-10T06:41:58.175Z,16.80
2018-09-10T06:44:25.884Z,17.00
2018-09-10T06:46:53.846Z,17.10
2018-09-10T06:49:22.423Z,17.40
2018-09-10T06:51:52.360Z,17.40
2018-09-10T06:54:19.871Z,17.60
2018-09-10T06:56:48.673Z,17.70
2018-09-10T06:59:16.411Z,17.80
2018-09-10T07:01:44.013Z,17.80
2018-09-10T07:04:11.693Z,17.80
2018-09-10T07:06:39.300Z,17.80
2018-09-10T07:09:08.885Z,18.00
2018-09-10T07:11:36.855Z,18.10
2018-09-10T07:14:04.917Z,18.00
2018-09-10T07:16:33.109Z,18.20
2018-09-10T07:19:00.672Z,18.30
2018-09-10T07:21:28.340Z,18.30
2018-09-10T07:23:55.984Z,18.40
2018-09-10T07:26:23.412Z,18.40
2018-09-10T07:28:51.244Z,18.50
2018-09-10T07:31:19.006Z,18.70
2018-09-10T07:33:48.698Z,18.70
2018-09-10T07:36:17.309Z,18.80
2018-09-10T07:38:45.386Z,18.90
2018-09-10T07:41:12.740Z,19.10
2018-09-10T07:43:40.435Z,19.20
2018-09-10T07:46:07.942Z,19.20
2018-09-10T07:48:35.472Z,19.50
2018-09-10T07:51:03.030Z,19.50
2018-09-10T07:53:30.572Z,19.70
2018-09-10T07:55:58.189Z,19.70
2018-09-10T07:58:25.693Z,19.70
2018-09-10T08:00:53.174Z,19.80
2018-09-10T08:03:20.808Z,19.90
2018-09-10T08:05:48.349Z,19.90
2018-09-10T08:08:15.816Z,19.90
2018-09-10T08:10:49.188Z,20.10
2018-09-10T08:13:16.846Z,20.20
2018-09-10T08:15:44.363Z,20.20
2018-09-10T08:18:11.818Z,20.20
2018-09-10T08:20:39.584Z,20.20
2018-09-10T08:23:07.891Z,20.50
2018-09-10T08:25:35.457Z,20.60
2018-09-10T08:28:03.133Z,20.60
2018-09-10T08:30:30.828Z,20.60
2018-09-10T08:32:58.271Z,20.70
2018-09-10T08:35:25.897Z,21.00
2018-09-10T08:37:54.138Z,20.90
2018-09-10T08:40:21.795Z,21.10
2018-09-10T08:43:05.952Z,21.30
2018-09-10T08:45:56.166Z,21.20
2018-09-10T08:51:16.867Z,21.70
2018-09-10T09:02:54.110Z,22.10
2018-09-10T09:05:21.816Z,22.30
2018-09-10T09:13:35.008Z,23.00
2018-09-10T09:16:02.681Z,23.10
2018-09-10T09:27:28.045Z,24.20
2018-09-10T09:32:50.274Z,24.30
2018-09-10T10:03:56.365Z,25.20
2018-09-10T10:08:37.495Z,25.40
2018-09-10T10:11:28.124Z,25.80
2018-09-10T10:13:55.905Z,26.60
2018-09-10T10:16:25.578Z,26.50
2018-09-10T10:19:04.889Z,26.20
2018-09-10T10:21:47.216Z,26.20
2018-09-10T10:24:16.415Z,26.30
2018-09-10T10:26:47.076Z,26.50
2018-09-10T10:29:28.827Z,26.90
2018-09-10T10:32:32.022Z,27.40
2018-09-10T10:35:00.453Z,27.70
2018-09-10T10:37:29.615Z,27.90
2018-09-10T10:45:42.496Z,28.70
2018-09-10T10:48:32.116Z,29.10
2018-09-10T10:51:27.146Z,29.20
2018-09-10T11:02:45.351Z,28.80
2018-09-10T11:06:35.321Z,28.50
2018-09-10T11:09:09.013Z,28.30
2018-09-10T12:02:45.021Z,29.70
2018-09-10T12:08:05.976Z,29.90
2018-09-10T12:10:53.590Z,29.90
2018-09-10T12:13:26.285Z,29.80
2018-09-10T12:28:08.736Z,30.70
2018-09-10T12:30:57.458Z,30.80
2018-09-10T12:34:40.385Z,30.90
2018-09-10T12:37:19.957Z,31.20
2018-09-10T12:46:10.939Z,31.80
2018-09-10T12:48:59.031Z,31.80
2018-09-10T12:54:19.238Z,32.40
2018-09-10T12:56:46.746Z,32.40
2018-09-10T13:02:17.121Z,32.20
2018-09-10T13:10:43.529Z,32.40
2018-09-10T13:13:11.752Z,32.70
2018-09-10T13:15:39.285Z,32.70
2018-09-10T13:18:10.881Z,32.70
2018-09-10T13:20:38.481Z,32.90
2018-09-10T13:23:06.012Z,32.70
2018-09-10T13:25:33.441Z,32.40
2018-09-10T13:28:03.327Z,32.50
2018-09-10T13:30:32.685Z,32.40
2018-09-10T13:36:04.159Z,32.40
2018-09-10T13:38:32.966Z,32.10
2018-09-10T13:41:02.193Z,32.30
2018-09-10T13:43:33.120Z,32.40
2018-09-10T13:55:00.435Z,32.10
2018-09-10T13:57:42.825Z,32.50
2018-09-10T14:00:33.194Z,32.70
2018-09-10T14:08:56.301Z,32.80
2018-09-10T14:11:36.714Z,32.80
2018-09-10T14:15:38.525Z,33.00
2018-09-10T14:18:16.282Z,33.00
2018-09-10T14:20:44.697Z,32.80
2018-09-10T14:23:12.213Z,33.10
2018-09-10T14:25:40.011Z,33.10
2018-09-10T14:37:06.660Z,32.70
2018-09-10T14:39:34.313Z,32.70
2018-09-10T14:45:26.488Z,32.90
2018-09-10T14:54:11.856Z,33.00
2018-09-10T14:56:39.676Z,33.30
2018-09-10T15:02:23.072Z,33.40
2018-09-10T15:05:13.135Z,33.60
2018-09-10T15:07:41.199Z,33.70
2018-09-10T15:16:14.329Z,33.60
2018-09-10T15:18:47.633Z,33.70
2018-09-10T15:21:15.024Z,33.90
2018-09-10T15:26:47.431Z,33.90
2018-09-10T15:32:28.769Z,33.40
2018-09-10T15:43:57.372Z,33.20
2018-09-10T15:46:30.040Z,33.10
2018-09-10T15:49:19.805Z,32.70
2018-09-10T15:51:53.673Z,32.80
2018-09-10T15:54:22.186Z,32.70
2018-09-10T15:56:54.459Z,32.40
2018-09-10T15:59:38.309Z,32.40
2018-09-10T16:02:06.112Z,32.40
2018-09-10T16:04:34.041Z,32.10
2018-09-10T16:07:22.530Z,31.90
2018-09-10T16:09:52.433Z,31.90
2018-09-10T16:12:20.283Z,32.10
2018-09-10T16:15:03.962Z,32.20
2018-09-10T16:20:35.576Z,32.20
2018-09-10T16:35:17.752Z,31.80
2018-09-10T16:52:30.200Z,30.70
2018-09-10T16:57:51.207Z,30.60
2018-09-10T17:03:21.315Z,30.20
2018-09-10T17:20:34.687Z,29.60
2018-09-10T17:29:09.916Z,29.30
2018-09-10T17:37:49.815Z,28.90
2018-09-10T17:43:32.830Z,28.70
2018-09-10T17:52:16.257Z,28.40
2018-09-10T17:57:59.128Z,28.20
2018-09-10T18:00:32.263Z,28.10
2018-09-10T18:06:02.936Z,28.10
2018-09-10T18:08:30.664Z,28.10
2018-09-10T18:17:52.642Z,28.10
2018-09-10T18:20:34.505Z,27.90
2018-09-10T18:23:02.144Z,27.80
2018-09-10T18:25:30.481Z,27.70
2018-09-10T18:28:21.722Z,27.70
2018-09-10T18:30:49.214Z,27.50
2018-09-10T18:33:17.611Z,27.30
2018-09-10T18:35:55.142Z,27.20
2018-09-10T18:38:24.305Z,27.20
2018-09-10T18:40:51.987Z,27.10
2018-09-10T18:49:57.314Z,26.90
2018-09-10T18:52:31.085Z,26.90
2018-09-10T18:55:18.494Z,26.70
2018-09-10T18:57:59.385Z,26.60
2018-09-10T19:06:39.550Z,26.40
2018-09-10T19:09:08.494Z,26.20
2018-09-10T19:11:55.571Z,26.20
2018-09-10T19:14:26.047Z,26.00
2018-09-10T19:16:53.713Z,26.00
2018-09-10T19:22:21.669Z,25.80
2018-09-10T19:24:49.279Z,25.80
2018-09-10T19:27:16.634Z,25.90
2018-09-10T19:29:44.035Z,25.70
2018-09-10T19:32:11.956Z,25.60
2018-09-10T19:34:39.348Z,25.60
2018-09-10T19:37:06.794Z,25.40
2018-09-10T19:39:34.176Z,25.30
2018-09-10T19:42:01.694Z,25.40
2018-09-10T19:44:29.132Z,25.40
2018-09-10T20:39:24.684Z,24.80
2018-09-10T20:41:52.197Z,24.80
2018-09-10T20:44:25.494Z,24.70
2018-09-10T20:46:52.976Z,24.80
2018-09-10T20:49:26.805Z,24.80
2018-09-10T20:54:56.458Z,24.70
2018-09-10T21:00:34.433Z,24.60
2018-09-10T21:06:09.035Z,24.60
2018-09-10T21:14:41.519Z,24.40
2018-09-10T21:20:24.176Z,24.30
2018-09-10T21:23:12.176Z,24.30
2018-09-10T21:25:39.707Z,24.30
2018-09-10T21:34:03.648Z,23.80
2018-09-10T21:42:37.277Z,23.70
2018-09-10T21:45:04.930Z,23.50
2018-09-10T21:50:35.276Z,23.50
2018-09-10T21:56:08.073Z,23.40
2018-09-10T21:58:36.117Z,23.30
2018-09-10T22:01:27.249Z,23.30
2018-09-10T22:03:54.968Z,23.40
2018-09-10T22:18:14.535Z,22.90
2018-09-10T22:44:44.530Z,22.60
2018-09-10T23:20:46.701Z,22.20
2018-09-10T23:41:26.740Z,21.90
2018-09-10T23:44:08.240Z,21.90
2018-09-10T23:49:48.053Z,21.80
2018-09-10T23:52:16.024Z,21.80
2018-09-10T23:54:46.057Z,21.60
2018-09-10T23:57:18.397Z,21.60
2018-09-10T23:59:49.849Z,21.50
